Time;durP1;ratioP1;P1;durP2;ratioP2;P2;SDS_P1;SDS_P2;PMS_P1;PMS_P2;Temp;Humidity;BMP_temperature;BMP_pressure;BME280_temperature;BME280_humidity;BME280_pressure;Samples;Min_cycle;Max_cycle;Signal;HPM_P1;HPM_P2
2022/02/05 00:01:07;;;;;;;10.18;2.70;;;4.30;99.90;;;;;;5015195;28;20084;-68
2022/02/05 00:03:40;;;;;;;6.90;2.28;;;4.30;99.90;;;;;;5016329;28;20042;-68
2022/02/05 00:06:07;;;;;;;10.45;2.80;;;4.40;99.90;;;;;;5016529;28;20080;-68
2022/02/05 00:43:06;;;;;;;14.55;2.97;;;4.30;99.90;;;;;;5014394;28;20481;-68
2022/02/05 00:45:35;;;;;;;19.33;3.67;;;4.40;99.90;;;;;;5015825;28;20034;-68
2022/02/05 00:48:02;;;;;;;21.25;3.80;;;4.30;99.90;;;;;;5014977;28;20041;-68
2022/02/05 00:50:30;;;;;;;18.30;3.67;;;4.20;99.90;;;;;;5015830;28;20124;-68
2022/02/05 00:53:11;;;;;;;15.43;4.13;;;4.30;99.90;;;;;;5015865;28;20048;-68
2022/02/05 00:55:41;;;;;;;18.15;4.40;;;4.40;99.90;;;;;;5015423;28;20053;-68
2022/02/05 00:58:07;;;;;;;18.48;3.45;;;4.50;99.90;;;;;;5015151;28;20099;-68
2022/02/05 01:00:35;;;;;;;16.15;3.88;;;4.50;99.90;;;;;;5015373;28;20077;-68
2022/02/05 01:03:00;;;;;;;16.38;3.95;;;4.60;99.90;;;;;;5015141;28;20034;-68
2022/02/05 01:05:26;;;;;;;20.77;4.65;;;4.60;99.90;;;;;;5015251;28;20437;-68
2022/02/05 01:07:56;;;;;;;18.45;4.15;;;4.70;99.90;;;;;;5014127;28;20059;-68
2022/02/05 01:10:26;;;;;;;17.77;3.35;;;4.70;99.90;;;;;;5015196;28;20096;-68
2022/02/05 01:12:57;;;;;;;19.05;4.22;;;4.70;99.90;;;;;;5015024;28;20046;-68
2022/02/05 01:15:27;;;;;;;10.35;2.13;;;4.80;99.90;;;;;;5015026;28;20042;-68
2022/02/05 01:17:59;;;;;;;15.02;3.05;;;4.80;99.90;;;;;;5013497;28;20449;-67
2022/02/05 01:23:13;;;;;;;7.50;2.30;;;4.70;99.90;;;;;;5013820;28;20038;-68
2022/02/05 01:25:45;;;;;;;15.10;2.35;;;4.60;99.90;;;;;;5015213;28;20041;-68
2022/02/05 01:28:16;;;;;;;8.30;2.53;;;4.50;99.90;;;;;;5014412;28;20049;-68
2022/02/05 01:30:46;;;;;;;17.65;3.33;;;4.60;99.90;;;;;;5013383;28;20474;-68
2022/02/05 01:36:01;;;;;;;13.85;2.95;;;4.40;99.90;;;;;;5014994;28;20062;-68
2022/02/05 01:57:19;;;;;;;11.82;3.97;;;4.20;99.90;;;;;;5013153;28;20045;-68
2022/02/05 02:05:12;;;;;;;20.00;4.32;;;4.20;99.90;;;;;;5013219;28;20129;-68
2022/02/05 02:16:05;;;;;;;27.35;4.50;;;4.40;99.90;;;;;;5013056;28;20054;-68
2022/02/05 02:26:13;;;;;;;22.48;5.38;;;4.40;99.90;;;;;;5014066;28;20046;-68
2022/02/05 02:28:50;;;;;;;12.55;3.28;;;4.60;99.90;;;;;;5013479;28;20164;-68
2022/02/05 02:31:21;;;;;;;14.70;4.00;;;4.60;99.90;;;;;;5012508;28;20042;-68
2022/02/05 02:33:51;;;;;;;9.20;2.65;;;4.60;99.90;;;;;;5013649;28;20394;-68
2022/02/05 02:36:46;;;;;;;15.35;3.13;;;4.60;99.90;;;;;;5013958;28;20061;-68
2022/02/05 02:39:15;;;;;;;16.67;3.72;;;4.60;99.90;;;;;;5012960;28;20410;-68
2022/02/05 02:44:12;;;;;;;17.17;3.55;;;4.70;99.90;;;;;;5013973;28;20437;-68
2022/02/05 02:46:38;;;;;;;22.23;4.43;;;4.70;99.90;;;;;;5013909;28;20045;-68
2022/02/05 02:49:05;;;;;;;14.23;2.70;;;4.70;99.90;;;;;;5011864;28;20038;-68
2022/02/05 02:57:16;;;;;;;14.90;2.97;;;4.30;99.90;;;;;;5013562;28;20049;-68
2022/02/05 02:59:51;;;;;;;19.75;3.45;;;4.30;99.90;;;;;;5013636;28;20117;-68
2022/02/05 03:02:21;;;;;;;20.83;4.40;;;4.20;99.90;;;;;;5012632;28;20413;-68
2022/02/05 03:04:48;;;;;;;18.33;5.63;;;4.20;99.90;;;;;;5013404;28;20520;-68
2022/02/05 03:07:14;;;;;;;26.42;4.68;;;4.20;99.90;;;;;;5014674;28;20044;-68
2022/02/05 03:09:41;;;;;;;23.85;4.50;;;4.30;99.90;;;;;;5016011;28;20105;-68
2022/02/05 03:12:08;;;;;;;26.90;6.57;;;4.20;99.90;;;;;;5017990;28;20046;-68
2022/02/05 03:14:33;;;;;;;20.88;4.40;;;4.20;99.90;;;;;;5017299;28;20052;-68
2022/02/05 03:17:05;;;;;;;20.08;3.90;;;4.20;99.90;;;;;;5017308;28;20478;-68
2022/02/05 03:19:31;;;;;;;16.75;4.43;;;4.30;99.90;;;;;;5017059;28;20042;-68
2022/02/05 03:21:57;;;;;;;23.52;5.93;;;4.30;99.90;;;;;;5032874;28;20484;-68
2022/02/05 03:24:22;;;;;;;16.95;4.03;;;4.30;99.90;;;;;;5016009;28;20046;-68
2022/02/05 03:26:48;;;;;;;25.52;4.50;;;4.20;99.90;;;;;;5017466;28;20042;-68
2022/02/05 03:29:14;;;;;;;19.98;3.95;;;4.30;99.90;;;;;;5017017;28;20383;-68
2022/02/05 03:31:39;;;;;;;19.35;5.28;;;4.20;99.90;;;;;;5016757;28;20049;-68
2022/02/05 03:34:06;;;;;;;24.25;4.05;;;4.20;99.90;;;;;;5017154;28;20041;-68
2022/02/05 03:36:36;;;;;;;24.38;3.92;;;4.30;99.90;;;;;;5017363;28;20462;-68
2022/02/05 03:39:04;;;;;;;19.73;4.35;;;4.20;99.90;;;;;;5016498;28;20046;-68
2022/02/05 03:41:30;;;;;;;22.63;4.10;;;4.10;99.90;;;;;;5015354;28;20052;-68
2022/02/05 03:43:55;;;;;;;19.25;4.53;;;4.20;99.90;;;;;;5017279;28;20038;-68
2022/02/05 03:46:21;;;;;;;23.33;4.53;;;4.20;99.90;;;;;;5017521;28;20037;-68
2022/02/05 03:48:46;;;;;;;23.13;3.97;;;4.20;99.90;;;;;;5016385;28;20045;-68
2022/02/05 03:51:12;;;;;;;22.10;3.92;;;4.10;99.90;;;;;;5016775;28;20050;-68
2022/02/05 03:53:38;;;;;;;18.67;4.07;;;4.10;99.90;;;;;;5015896;28;20103;-68
2022/02/05 03:56:03;;;;;;;23.42;4.05;;;4.10;99.90;;;;;;5016470;28;20069;-68
2022/02/05 03:58:29;;;;;;;22.60;4.18;;;4.10;99.90;;;;;;5015014;28;20045;-68
2022/02/05 04:00:54;;;;;;;22.20;3.58;;;4.00;99.90;;;;;;5016336;28;20082;-68
2022/02/05 04:03:20;;;;;;;24.17;4.00;;;4.00;99.90;;;;;;5016825;28;20398;-68
2022/02/05 04:05:45;;;;;;;23.42;5.20;;;4.00;99.90;;;;;;5016276;28;20038;-68
2022/02/05 04:08:13;;;;;;;20.33;3.80;;;3.90;99.90;;;;;;5015703;28;20501;-68
2022/02/05 04:10:46;;;;;;;19.98;3.55;;;3.90;99.90;;;;;;5016434;28;20042;-68
2022/02/05 04:18:34;;;;;;;16.25;3.15;;;3.80;99.90;;;;;;5014097;28;20046;-68
2022/02/05 04:21:01;;;;;;;16.63;3.45;;;3.80;99.90;;;;;;5015877;28;20053;-68
2022/02/05 04:23:27;;;;;;;14.45;3.38;;;3.80;99.90;;;;;;5015590;28;20100;-68
2022/02/05 04:25:52;;;;;;;13.70;3.95;;;3.80;99.90;;;;;;5016518;28;20851;-68
2022/02/05 04:28:18;;;;;;;12.77;4.13;;;3.90;99.90;;;;;;5015768;28;20492;-68
2022/02/05 04:30:44;;;;;;;16.08;2.80;;;3.90;99.90;;;;;;5016172;28;20390;-68
2022/02/05 04:33:09;;;;;;;11.40;2.10;;;4.00;99.90;;;;;;5016212;28;20117;-68
2022/02/05 04:35:35;;;;;;;16.40;2.85;;;4.00;99.90;;;;;;5016238;28;20096;-68
2022/02/05 04:38:03;;;;;;;12.27;2.75;;;4.00;99.90;;;;;;5015195;28;20042;-67
2022/02/05 04:40:34;;;;;;;20.83;3.13;;;4.10;99.90;;;;;;5015688;28;20052;-68
2022/02/05 04:51:35;;;;;;;19.65;2.70;;;3.90;99.90;;;;;;5016081;28;20057;-68
2022/02/05 05:01:33;;;;;;;20.13;3.35;;;3.70;99.90;;;;;;5014000;28;20053;-68
2022/02/05 05:04:28;;;;;;;9.18;2.42;;;3.70;99.90;;;;;;5014378;28;20045;-68
2022/02/05 05:20:31;;;;;;;15.50;2.78;;;3.40;99.90;;;;;;4977110;28;20050;-68
2022/02/05 05:22:56;;;;;;;8.93;2.88;;;3.30;99.90;;;;;;5005852;28;20517;-68
2022/02/05 05:25:22;;;;;;;14.20;3.40;;;3.30;99.90;;;;;;5015267;28;20044;-68
2022/02/05 05:27:48;;;;;;;21.02;3.88;;;3.20;99.90;;;;;;5014606;28;20030;-68
2022/02/05 05:30:14;;;;;;;20.50;3.00;;;3.20;99.90;;;;;;5013149;28;20517;-68
2022/02/05 05:32:40;;;;;;;15.88;3.15;;;3.20;99.90;;;;;;5014596;28;20038;-68
2022/02/05 05:35:07;;;;;;;18.88;3.35;;;3.20;99.90;;;;;;5013546;28;20107;-67
2022/02/05 05:37:33;;;;;;;19.70;3.88;;;3.20;99.90;;;;;;5014245;28;20042;-67
2022/02/05 05:39:58;;;;;;;12.57;2.42;;;3.20;99.90;;;;;;5013391;28;20044;-68
2022/02/05 05:42:28;;;;;;;16.52;2.72;;;3.20;99.90;;;;;;5014569;28;20033;-68
2022/02/05 05:50:05;;;;;;;12.43;4.15;;;3.10;99.90;;;;;;5013607;28;20054;-68
2022/02/05 05:52:31;;;;;;;17.60;3.20;;;3.10;99.90;;;;;;5014584;28;20393;-68
2022/02/05 05:54:57;;;;;;;16.00;2.83;;;3.10;99.90;;;;;;5014931;28;20034;-68
2022/02/05 05:57:23;;;;;;;15.40;2.70;;;3.00;99.90;;;;;;5014025;28;20045;-67
2022/02/05 05:59:49;;;;;;;12.77;3.45;;;3.10;99.90;;;;;;5014175;28;20473;-68
2022/02/05 06:02:15;;;;;;;17.55;3.53;;;3.10;99.90;;;;;;5014427;28;20430;-68
2022/02/05 06:04:41;;;;;;;27.35;4.35;;;3.00;99.90;;;;;;5014568;28;20084;-68
2022/02/05 06:07:07;;;;;;;22.17;3.53;;;3.00;99.90;;;;;;5014229;28;20038;-68
2022/02/05 06:09:40;;;;;;;21.67;3.67;;;3.00;99.90;;;;;;5014536;28;20045;-68
2022/02/05 06:12:07;;;;;;;20.27;3.22;;;3.00;99.90;;;;;;5014171;28;20053;-67
2022/02/05 06:14:32;;;;;;;17.80;3.20;;;3.10;99.90;;;;;;5013934;28;20549;-68
2022/02/05 06:17:08;;;;;;;15.82;4.72;;;3.10;99.90;;;;;;5014294;28;20118;-68
2022/02/05 06:19:36;;;;;;;16.00;3.45;;;3.10;99.90;;;;;;5014115;28;20084;-68
2022/02/05 06:22:01;;;;;;;13.40;3.30;;;3.10;99.90;;;;;;5013789;28;20050;-68
2022/02/05 06:24:27;;;;;;;11.60;2.50;;;3.20;99.90;;;;;;5029494;28;20041;-67
2022/02/05 06:26:52;;;;;;;14.95;3.20;;;3.20;99.90;;;;;;5013753;28;20034;-68
2022/02/05 06:29:18;;;;;;;10.02;2.55;;;3.10;99.90;;;;;;5013726;28;20042;-67
2022/02/05 06:31:43;;;;;;;10.85;2.67;;;3.10;99.90;;;;;;5029365;28;20085;-68
2022/02/05 06:34:09;;;;;;;21.83;4.15;;;3.10;99.90;;;;;;5013718;28;20099;-68
2022/02/05 06:36:35;;;;;;;17.73;4.15;;;3.10;99.90;;;;;;5014234;28;20060;-68
2022/02/05 06:39:00;;;;;;;20.20;4.13;;;3.10;99.90;;;;;;5013090;28;20077;-67
2022/02/05 06:41:26;;;;;;;12.98;2.30;;;3.20;99.90;;;;;;5012048;28;20038;-68
2022/02/05 06:43:51;;;;;;;17.10;3.58;;;3.30;99.90;;;;;;5013575;28;20038;-67
2022/02/05 06:46:17;;;;;;;12.73;3.20;;;3.40;99.90;;;;;;5012659;28;20052;-68
2022/02/05 06:48:42;;;;;;;17.98;4.05;;;3.40;99.90;;;;;;5013394;28;20049;-68
2022/02/05 06:51:08;;;;;;;17.88;2.85;;;3.40;99.90;;;;;;5012298;28;20056;-67
2022/02/05 06:53:34;;;;;;;17.95;3.30;;;3.40;99.90;;;;;;5013625;28;20131;-68
2022/02/05 06:55:59;;;;;;;11.57;3.20;;;3.40;99.90;;;;;;5012192;28;20046;-68
2022/02/05 06:58:25;;;;;;;19.75;3.00;;;3.30;99.90;;;;;;5013161;28;20100;-68
2022/02/05 07:00:51;;;;;;;20.90;2.40;;;3.30;99.90;;;;;;5013756;28;20040;-68
2022/02/05 07:03:18;;;;;;;17.80;3.45;;;3.20;99.90;;;;;;5013450;28;20038;-68
2022/02/05 07:05:44;;;;;;;17.13;2.70;;;3.20;99.90;;;;;;5014203;28;20088;-68
2022/02/05 07:08:09;;;;;;;26.77;3.70;;;3.20;99.90;;;;;;5013263;28;20030;-68
2022/02/05 07:10:35;;;;;;;23.13;4.25;;;3.20;99.90;;;;;;5013603;28;20042;-68
2022/02/05 07:13:18;;;;;;;20.67;2.95;;;3.10;99.90;;;;;;5013630;28;20038;-68
2022/02/05 07:16:01;;;;;;;18.77;2.72;;;3.10;99.90;;;;;;5012495;28;20041;-68
2022/02/05 07:18:40;;;;;;;21.80;3.42;;;3.10;99.90;;;;;;5013186;28;20038;-68
2022/02/05 07:21:11;;;;;;;12.27;3.38;;;3.00;99.90;;;;;;5013640;28;20050;-66
2022/02/05 07:23:52;;;;;;;18.45;3.60;;;3.00;99.90;;;;;;5013164;28;20563;-66
2022/02/05 07:29:15;;;;;;;16.15;2.85;;;3.00;99.90;;;;;;5027019;28;20125;-66
2022/02/05 07:31:55;;;;;;;19.17;4.28;;;3.10;99.90;;;;;;5033139;28;20042;-66
2022/02/05 07:34:29;;;;;;;13.68;4.05;;;3.10;99.90;;;;;;5033033;28;20041;-66
2022/02/05 07:37:04;;;;;;;;;;;3.00;99.90;;;;;;5034056;28;20359;-66
2022/02/05 07:39:37;;;;;;;18.15;3.33;;;3.00;99.90;;;;;;5032573;28;20003;-66
2022/02/05 07:42:03;;;;;;;11.73;2.90;;;3.10;99.90;;;;;;5033002;28;20045;-66
2022/02/05 07:44:29;;;;;;;12.75;3.10;;;3.10;99.90;;;;;;5032944;28;20048;-66
2022/02/05 07:46:59;;;;;;;15.30;2.60;;;3.00;99.90;;;;;;5032833;28;20038;-66
2022/02/05 07:49:25;;;;;;;14.05;2.42;;;3.10;99.90;;;;;;5032698;28;20117;-66
2022/02/05 07:51:51;;;;;;;16.75;3.47;;;3.10;99.90;;;;;;5032691;28;20080;-66
2022/02/05 07:54:17;;;;;;;12.80;3.05;;;3.20;99.90;;;;;;5035550;28;20048;-66
2022/02/05 07:56:45;;;;;;;16.30;3.25;;;3.30;99.90;;;;;;5036321;28;20041;-66
2022/02/05 07:59:12;;;;;;;14.55;4.35;;;3.30;99.90;;;;;;5034782;28;20094;-66
2022/02/05 08:01:37;;;;;;;16.50;3.45;;;3.40;99.90;;;;;;5036038;28;20084;-66
2022/02/05 08:04:03;;;;;;;12.25;2.47;;;3.50;99.90;;;;;;5036285;28;20079;-66
2022/02/05 08:06:29;;;;;;;14.15;3.22;;;3.60;99.90;;;;;;5036206;28;20040;-66
2022/02/05 08:08:59;;;;;;;13.50;3.47;;;3.80;99.90;;;;;;5035666;28;20142;-66
2022/02/05 08:11:35;;;;;;;15.38;3.08;;;3.90;99.90;;;;;;5036184;28;20041;-66
2022/02/05 08:14:07;;;;;;;15.20;2.80;;;3.90;99.90;;;;;;5036320;28;20053;-66
2022/02/05 08:16:47;;;;;;;12.85;2.50;;;4.10;99.90;;;;;;5035547;28;20034;-66
2022/02/05 08:19:13;;;;;;;11.30;2.47;;;4.20;99.90;;;;;;5034342;28;20700;-66
2022/02/05 08:21:39;;;;;;;12.75;2.95;;;4.30;99.90;;;;;;5035856;28;20497;-66
2022/02/05 08:24:04;;;;;;;13.15;2.83;;;4.30;99.90;;;;;;5035632;28;20124;-67
2022/02/05 08:26:31;;;;;;;19.92;7.85;;;4.40;99.90;;;;;;5035798;28;20030;-67
2022/02/05 08:28:59;;;;;;;17.98;2.78;;;4.50;99.90;;;;;;5035158;28;20444;-66
2022/02/05 08:31:26;;;;;;;18.13;3.13;;;4.60;99.90;;;;;;5032805;28;20134;-67
2022/02/05 08:33:52;;;;;;;15.57;3.00;;;4.70;99.90;;;;;;5035150;28;20103;-67
2022/02/05 08:36:21;;;;;;;15.68;2.88;;;4.80;99.90;;;;;;5035018;28;20044;-67
2022/02/05 08:38:47;;;;;;;20.27;3.85;;;4.80;99.90;;;;;;5033572;28;20048;-66
2022/02/05 08:41:13;;;;;;;12.35;3.38;;;4.80;99.90;;;;;;5034854;28;20112;-67
2022/02/05 08:43:39;;;;;;;11.90;3.67;;;4.90;99.90;;;;;;5035976;28;20516;-67
2022/02/05 08:46:04;;;;;;;16.90;3.53;;;4.90;99.90;;;;;;5034718;28;20048;-66
2022/02/05 08:48:30;;;;;;;22.23;3.20;;;4.90;99.90;;;;;;5035244;28;20038;-70
2022/02/05 08:50:55;;;;;;;13.00;3.63;;;4.90;99.90;;;;;;5035567;28;20038;-70
2022/02/05 08:53:22;;;;;;;24.10;4.28;;;5.00;99.90;;;;;;5034558;28;20501;-70
2022/02/05 08:55:49;;;;;;;17.67;3.45;;;5.10;99.90;;;;;;5034074;28;20037;-70
2022/02/05 08:58:14;;;;;;;20.20;4.15;;;5.20;99.90;;;;;;5033858;28;20393;-70
2022/02/05 09:00:46;;;;;;;16.45;3.53;;;5.20;99.90;;;;;;5035534;28;20045;-70
2022/02/05 09:03:22;;;;;;;18.30;4.45;;;5.30;99.90;;;;;;5035113;28;20147;-70
2022/02/05 09:05:48;;;;;;;20.15;3.33;;;5.20;99.90;;;;;;5034865;28;20045;-70
2022/02/05 09:08:28;;;;;;;15.15;3.70;;;5.20;99.90;;;;;;5033495;28;20037;-70
2022/02/05 09:11:08;;;;;;;15.30;3.72;;;5.20;99.90;;;;;;5033929;28;20042;-70
2022/02/05 09:16:25;;;;;;;17.35;3.70;;;5.20;99.90;;;;;;5011070;28;20045;-70
2022/02/05 09:18:51;;;;;;;18.52;3.63;;;5.30;99.90;;;;;;5033002;28;20068;-70
2022/02/05 09:21:17;;;;;;;15.63;3.72;;;5.30;99.90;;;;;;5034098;28;20052;-70
2022/02/05 09:23:52;;;;;;;17.80;3.70;;;5.30;99.90;;;;;;5035266;28;20108;-70
2022/02/05 09:26:18;;;;;;;18.38;4.22;;;5.30;99.90;;;;;;5034722;28;20120;-70
2022/02/05 09:28:44;;;;;;;17.33;3.47;;;5.30;99.90;;;;;;5034292;28;20073;-70
2022/02/05 09:33:37;;;;;;;18.27;3.30;;;5.40;99.90;;;;;;5034383;28;20496;-70
2022/02/05 09:36:03;;;;;;;16.48;4.90;;;5.50;99.90;;;;;;5033940;28;20037;-70
2022/02/05 09:38:29;;;;;;;24.95;4.32;;;5.60;99.90;;;;;;5034134;28;20053;-70
2022/02/05 09:40:56;;;;;;;15.10;3.65;;;5.70;99.90;;;;;;5034108;28;20370;-70
2022/02/05 09:43:27;;;;;;;15.88;3.28;;;5.70;99.90;;;;;;5016502;28;20053;-70
2022/02/05 09:45:56;;;;;;;20.02;3.15;;;5.60;99.90;;;;;;5033034;28;20053;-70
2022/02/05 09:48:22;;;;;;;18.02;3.97;;;5.60;99.90;;;;;;5032639;28;20096;-70
2022/02/05 09:50:48;;;;;;;23.02;3.92;;;5.60;99.90;;;;;;5032695;28;20554;-70
2022/02/05 09:53:16;;;;;;;18.33;4.13;;;5.60;99.90;;;;;;5034028;28;20041;-70
2022/02/05 09:55:43;;;;;;;14.15;4.13;;;5.70;99.90;;;;;;5034297;28;20037;-70
2022/02/05 09:58:09;;;;;;;19.65;3.67;;;5.70;99.90;;;;;;5033609;28;20049;-70
2022/02/05 10:00:36;;;;;;;15.43;4.20;;;5.80;99.90;;;;;;5016499;28;20049;-70
2022/02/05 10:03:03;;;;;;;22.38;4.22;;;5.80;99.90;;;;;;5033775;28;20048;-70
2022/02/05 10:05:31;;;;;;;15.15;3.67;;;5.80;99.90;;;;;;5016728;28;20049;-70
2022/02/05 10:08:07;;;;;;;16.33;4.25;;;5.90;99.90;;;;;;5032174;28;20124;-70
2022/02/05 10:10:41;;;;;;;25.63;5.78;;;6.00;99.90;;;;;;5034181;28;20042;-70
2022/02/05 10:13:10;;;;;;;;;;;6.00;99.90;;;;;;5034367;28;20052;-70
2022/02/05 10:15:39;;;;;;;18.45;3.60;;;6.10;99.90;;;;;;5034317;28;19917;-71
2022/02/05 10:18:05;;;;;;;16.90;4.10;;;6.10;99.90;;;;;;5034191;28;20041;-71
2022/02/05 10:20:31;;;;;;;13.05;4.07;;;6.30;99.90;;;;;;5032702;28;20045;-71
2022/02/05 10:23:10;;;;;;;21.90;4.78;;;6.60;99.90;;;;;;5033955;28;20112;-70
2022/02/05 10:25:37;;;;;;;27.65;4.30;;;6.70;99.90;;;;;;5032722;28;20053;-71
2022/02/05 10:28:10;;;;;;;19.10;4.00;;;6.70;99.90;;;;;;5033307;28;20038;-71
2022/02/05 10:30:40;;;;;;;17.50;3.88;;;6.60;99.90;;;;;;5033658;28;20077;-71
2022/02/05 10:33:16;;;;;;;14.20;4.57;;;6.60;99.90;;;;;;5032734;28;20155;-71
2022/02/05 10:43:53;;;;;;;16.08;3.92;;;6.50;99.90;;;;;;5033855;28;20049;-71
2022/02/05 10:46:20;;;;;;;16.00;3.10;;;6.60;99.90;;;;;;5033867;28;20095;-71
2022/02/05 10:48:46;;;;;;;17.88;3.42;;;6.60;99.90;;;;;;5032578;28;20120;-71
2022/02/05 10:51:13;;;;;;;16.13;3.85;;;6.70;99.90;;;;;;5033912;28;20489;-71
2022/02/05 10:53:48;;;;;;;17.67;3.75;;;6.50;99.90;;;;;;5033497;28;20052;-71
2022/02/05 10:56:32;;;;;;;16.83;4.63;;;6.60;99.90;;;;;;5033638;28;20496;-71
2022/02/05 11:07:20;;;;;;;18.33;4.47;;;6.70;99.90;;;;;;5033243;28;20067;-72
2022/02/05 11:09:52;;;;;;;14.20;3.20;;;6.70;99.90;;;;;;5032887;28;20041;-72
2022/02/05 11:20:33;;;;;;;17.45;3.58;;;6.90;99.90;;;;;;5033500;28;20054;-72
2022/02/05 11:23:08;;;;;;;17.42;3.75;;;6.90;99.90;;;;;;5032960;28;20036;-72
2022/02/05 11:25:37;;;;;;;11.77;3.08;;;6.90;99.90;;;;;;5033357;28;20117;-72
2022/02/05 11:28:04;;;;;;;12.30;5.38;;;6.90;99.90;;;;;;5033455;28;20073;-72
2022/02/05 11:30:43;;;;;;;14.27;4.00;;;6.90;99.90;;;;;;5037419;28;20447;-72
2022/02/05 11:33:31;;;;;;;15.88;3.25;;;7.00;99.90;;;;;;5037217;28;20408;-72
2022/02/05 11:38:43;;;;;;;16.58;3.33;;;7.00;99.90;;;;;;5035064;28;20052;-72
2022/02/05 11:41:24;;;;;;;13.35;3.05;;;7.10;99.90;;;;;;5035426;28;20103;-72
2022/02/05 11:44:13;;;;;;;11.27;3.30;;;7.10;99.90;;;;;;5035128;28;20094;-72
2022/02/05 11:46:39;;;;;;;8.85;3.03;;;7.10;99.90;;;;;;5035633;28;20045;-72
2022/02/05 11:49:06;;;;;;;14.80;3.22;;;7.10;99.90;;;;;;5036064;28;20041;-72
2022/02/05 11:51:42;;;;;;;14.02;3.05;;;7.00;99.90;;;;;;5036403;28;20037;-73
2022/02/05 11:54:10;;;;;;;16.70;3.83;;;7.00;99.90;;;;;;5036388;28;20046;-73
2022/02/05 11:56:51;;;;;;;16.00;3.20;;;7.10;99.90;;;;;;5035176;28;20487;-73
2022/02/05 11:59:19;;;;;;;12.88;2.90;;;7.00;99.90;;;;;;5034514;28;20125;-73
2022/02/05 12:01:46;;;;;;;15.55;2.50;;;7.10;99.90;;;;;;5036323;28;20038;-73
2022/02/05 12:04:24;;;;;;;12.68;3.75;;;7.10;99.90;;;;;;5036001;28;20033;-73
2022/02/05 12:06:57;;;;;;;15.88;3.30;;;7.10;99.90;;;;;;5035075;28;20045;-72
2022/02/05 12:09:34;;;;;;;15.18;2.53;;;7.10;99.90;;;;;;5035709;28;20041;-72
2022/02/05 12:12:37;;;;;;;11.77;2.75;;;7.00;99.90;;;;;;5035922;28;20112;-72
2022/02/05 12:15:17;;;;;;;11.07;2.80;;;7.00;99.90;;;;;;5035016;28;20049;-72
2022/02/05 12:18:00;;;;;;;9.38;2.88;;;7.10;99.90;;;;;;5035816;28;20046;-73
2022/02/05 12:20:30;;;;;;;11.48;2.58;;;7.10;99.90;;;;;;5034730;28;20121;-71
2022/02/05 12:24:14;;;;;;;18.20;3.95;;;7.10;99.90;;;;;;5035684;28;20053;-71
2022/02/05 12:25:59;;;;;;;10.75;2.78;;;7.10;99.90;;;;;;5026328;28;20049;-72
2022/02/05 12:28:38;;;;;;;9.70;3.33;;;7.10;99.90;;;;;;5034148;28;20095;-72
2022/02/05 12:31:05;;;;;;;10.05;2.40;;;7.10;99.90;;;;;;5035658;28;20100;-72
2022/02/05 12:33:50;;;;;;;15.23;2.75;;;7.10;99.90;;;;;;5035256;28;20030;-72
2022/02/05 12:36:38;;;;;;;17.25;3.97;;;7.20;99.90;;;;;;5034565;28;20036;-72
2022/02/05 12:39:09;;;;;;;10.60;2.88;;;7.20;99.90;;;;;;5031840;28;20489;-72
2022/02/05 12:41:35;;;;;;;15.18;4.03;;;7.20;99.90;;;;;;5034073;28;20037;-73
2022/02/05 12:44:07;;;;;;;10.00;2.45;;;7.30;99.90;;;;;;5033611;28;20044;-73
2022/02/05 12:46:54;;;;;;;12.57;3.15;;;7.30;99.90;;;;;;5033913;28;20041;-73
2022/02/05 12:49:27;;;;;;;13.18;2.60;;;7.40;99.90;;;;;;5033404;28;20045;-73
2022/02/05 12:51:53;;;;;;;19.77;3.83;;;7.40;99.90;;;;;;5032321;28;20056;-73
2022/02/05 12:54:24;;;;;;;12.93;2.65;;;7.50;99.90;;;;;;5034390;28;20136;-72
2022/02/05 12:56:49;;;;;;;10.77;3.90;;;7.50;99.90;;;;;;5033505;28;20080;-73
2022/02/05 12:59:23;;;;;;;16.33;3.33;;;7.50;99.90;;;;;;5033645;28;20065;-73
2022/02/05 13:01:52;;;;;;;12.05;3.78;;;7.40;99.90;;;;;;5034600;28;20404;-72
2022/02/05 13:04:20;;;;;;;16.30;3.10;;;7.50;99.90;;;;;;5034536;28;20076;-73
2022/02/05 13:07:03;;;;;;;12.48;2.88;;;7.50;99.90;;;;;;5035313;28;20044;-73
2022/02/05 13:09:30;;;;;;;14.73;4.00;;;7.60;99.90;;;;;;5033828;28;20046;-73
2022/02/05 13:12:00;;;;;;;12.40;3.63;;;7.70;99.90;;;;;;5034487;28;20045;-72
2022/02/05 13:14:37;;;;;;;11.93;2.97;;;7.70;99.90;;;;;;5034093;28;20045;-72
2022/02/05 13:17:05;;;;;;;20.23;3.85;;;7.80;99.90;;;;;;5034746;28;20411;-72
2022/02/05 13:19:51;;;;;;;14.00;2.83;;;7.80;99.90;;;;;;5033419;28;20120;-72
2022/02/05 13:36:04;;;;;;;16.77;3.28;;;7.70;99.90;;;;;;5033357;28;20076;-72
2022/02/05 13:38:50;;;;;;;10.88;3.30;;;7.70;99.90;;;;;;5032640;28;20060;-72
2022/02/05 13:41:16;;;;;;;14.40;3.20;;;7.70;99.90;;;;;;5033509;28;20053;-73
2022/02/05 13:43:55;;;;;;;13.35;4.50;;;7.60;99.90;;;;;;5034742;28;20492;-72
2022/02/05 13:46:21;;;;;;;9.35;3.08;;;7.70;99.90;;;;;;5034733;28;20060;-72
2022/02/05 13:48:47;;;;;;;12.05;2.78;;;7.70;99.90;;;;;;5032456;28;20045;-73
2022/02/05 13:51:13;;;;;;;9.32;2.35;;;7.60;99.90;;;;;;5033168;28;20041;-73
2022/02/05 13:53:57;;;;;;;18.05;3.42;;;7.60;99.90;;;;;;5033246;28;20056;-73
2022/02/05 13:56:23;;;;;;;18.63;3.97;;;7.60;99.90;;;;;;5034079;28;20511;-72
2022/02/05 13:58:50;;;;;;;13.05;3.30;;;7.60;99.90;;;;;;5033689;28;20034;-72
2022/02/05 14:01:29;;;;;;;11.88;3.15;;;7.50;99.90;;;;;;5032758;28;20501;-72
2022/02/05 14:03:55;;;;;;;14.63;3.05;;;7.50;99.90;;;;;;5034008;28;20091;-72
2022/02/05 14:06:21;;;;;;;12.55;3.08;;;7.60;99.90;;;;;;5033957;28;20041;-72
2022/02/05 14:08:49;;;;;;;18.00;4.07;;;7.60;99.90;;;;;;5033611;28;20037;-72
2022/02/05 14:11:24;;;;;;;9.38;3.10;;;7.60;99.90;;;;;;5033794;28;20120;-73
2022/02/05 14:14:01;;;;;;;11.73;3.13;;;7.60;99.90;;;;;;5032535;28;20056;-72
2022/02/05 14:16:31;;;;;;;12.00;2.80;;;7.60;99.90;;;;;;5033814;28;20103;-72
2022/02/05 14:18:59;;;;;;;11.73;3.10;;;7.60;99.90;;;;;;5033334;28;20102;-73
2022/02/05 14:21:43;;;;;;;13.77;3.17;;;7.60;99.90;;;;;;5034212;28;20045;-72
2022/02/05 14:24:16;;;;;;;15.43;4.35;;;7.60;99.90;;;;;;5032402;28;20543;-72
2022/02/05 14:26:53;;;;;;;15.85;3.85;;;7.60;99.90;;;;;;5033611;28;20113;-72
2022/02/05 14:29:19;;;;;;;15.07;3.30;;;7.60;99.90;;;;;;5033223;28;20520;-72
2022/02/05 14:31:49;;;;;;;11.70;2.88;;;7.60;99.90;;;;;;5032220;28;20053;-72
2022/02/05 14:34:21;;;;;;;15.25;3.78;;;7.70;99.90;;;;;;5034061;28;20064;-71
2022/02/05 14:42:16;;;;;;;15.38;3.47;;;7.60;99.90;;;;;;5031907;28;20413;-72
2022/02/05 14:44:43;;;;;;;11.68;3.00;;;7.60;99.90;;;;;;5033981;28;20046;-72
2022/02/05 14:47:09;;;;;;;10.27;4.22;;;7.60;99.90;;;;;;5033314;28;20147;-72
2022/02/05 14:49:35;;;;;;;10.85;2.65;;;7.60;99.90;;;;;;5032381;28;20066;-73
2022/02/05 14:52:02;;;;;;;12.50;3.78;;;7.60;99.90;;;;;;5031659;28;20037;-72
2022/02/05 14:54:29;;;;;;;11.02;3.33;;;7.50;99.90;;;;;;5029947;28;20505;-73
2022/02/05 14:56:55;;;;;;;9.85;3.13;;;7.60;99.90;;;;;;5032833;28;20485;-73
2022/02/05 14:59:20;;;;;;;10.65;3.05;;;7.50;99.90;;;;;;5031898;28;20519;-72
2022/02/05 15:01:46;;;;;;;6.40;2.25;;;7.50;99.90;;;;;;5033887;28;20124;-73
2022/02/05 15:04:12;;;;;;;14.02;2.75;;;7.50;99.90;;;;;;5037486;28;20064;-72
2022/02/05 15:06:38;;;;;;;10.85;2.38;;;7.50;99.90;;;;;;5037600;28;20056;-72
2022/02/05 15:09:07;;;;;;;14.95;3.13;;;7.50;99.90;;;;;;5036696;28;20037;-72
2022/02/05 15:11:33;;;;;;;10.15;2.85;;;7.50;99.90;;;;;;5036649;28;20103;-72
2022/02/05 15:14:01;;;;;;;11.75;2.80;;;7.50;99.90;;;;;;5036554;28;20107;-72
2022/02/05 15:16:29;;;;;;;16.50;2.85;;;7.40;99.90;;;;;;5037198;28;20049;-72
2022/02/05 15:18:57;;;;;;;11.32;2.72;;;7.40;99.90;;;;;;5036603;28;20405;-72
2022/02/05 15:21:35;;;;;;;11.45;2.70;;;7.50;99.90;;;;;;5036909;28;20041;-72
2022/02/05 15:24:01;;;;;;;9.00;2.85;;;7.50;99.90;;;;;;5036456;28;20047;-72
2022/02/05 15:26:30;;;;;;;10.02;2.30;;;7.40;99.90;;;;;;5036451;28;20469;-72
2022/02/05 15:28:56;;;;;;;11.15;2.63;;;7.40;99.90;;;;;;5036300;28;20516;-72
2022/02/05 15:31:22;;;;;;;12.65;2.63;;;7.40;99.90;;;;;;5036700;28;20041;-72
2022/02/05 15:33:51;;;;;;;8.55;2.42;;;7.50;99.90;;;;;;5037095;28;20081;-72
2022/02/05 15:37:21;;;;;;;11.27;3.40;;;7.40;99.90;;;;;;5035783;28;20053;-72
2022/02/05 15:39:23;;;;;;;10.63;2.67;;;7.40;99.90;;;;;;5022068;28;20045;-72
2022/02/05 15:44:34;;;;;;;15.68;2.60;;;7.30;99.90;;;;;;5036140;28;20053;-72
2022/02/05 15:46:59;;;;;;;14.80;2.65;;;7.30;99.90;;;;;;5037108;28;20424;-72
2022/02/05 15:49:26;;;;;;;7.45;2.72;;;7.30;99.90;;;;;;5034887;28;20041;-72
2022/02/05 15:51:52;;;;;;;14.18;4.35;;;7.30;99.90;;;;;;5036263;28;20397;-72
2022/02/05 15:54:20;;;;;;;13.48;2.85;;;7.20;99.90;;;;;;5036248;28;20042;-72
2022/02/05 15:57:05;;;;;;;12.52;2.78;;;7.20;99.90;;;;;;5036669;28;20099;-72
2022/02/05 16:02:10;;;;;;;12.50;3.03;;;7.20;99.90;;;;;;5036305;28;20049;-72
2022/02/05 16:04:35;;;;;;;16.83;4.28;;;7.20;99.90;;;;;;5036327;28;20092;-72
2022/02/05 16:07:01;;;;;;;12.07;3.17;;;7.10;99.90;;;;;;5035208;28;20049;-72
2022/02/05 16:09:26;;;;;;;8.00;2.83;;;7.10;99.90;;;;;;5035259;28;20481;-72